Time;durP1;ratioP1;P1;durP2;ratioP2;P2;SDS_P1;SDS_P2;PMS_P1;PMS_P2;Temp;Humidity;BMP_temperature;BMP_pressure;BME280_temperature;BME280_humidity;BME280_pressure;Samples;Min_cycle;Max_cycle;Signal;HPM_P1;HPM_P2
2023/09/17 00:02:23;;;;;;;11.88;10.68;;;19.80;95.80;;;;;;6152976;23;20057;-78
2023/09/17 00:04:48;;;;;;;13.60;12.07;;;19.80;95.60;;;;;;6153105;23;20006;-77
2023/09/17 00:07:14;;;;;;;10.80;9.80;;;19.80;95.50;;;;;;6152740;23;20005;-78
2023/09/17 00:09:40;;;;;;;10.77;9.70;;;19.80;95.40;;;;;;6151882;23;20490;-77
2023/09/17 00:12:06;;;;;;;11.45;10.40;;;19.80;95.40;;;;;;6152488;23;20462;-77
2023/09/17 00:14:31;;;;;;;11.75;10.65;;;19.70;95.40;;;;;;6152539;23;20005;-77
2023/09/17 00:16:57;;;;;;;11.60;9.07;;;19.70;95.70;;;;;;6152809;23;20443;-77
2023/09/17 00:19:23;;;;;;;12.65;10.52;;;19.60;95.50;;;;;;6152574;23;19997;-77
2023/09/17 00:21:51;;;;;;;13.35;12.05;;;19.60;95.70;;;;;;6153079;23;20006;-78
2023/09/17 00:24:17;;;;;;;11.65;10.65;;;19.50;95.80;;;;;;6125546;23;20033;-78
2023/09/17 00:26:42;;;;;;;12.70;11.50;;;19.40;96.00;;;;;;6152587;23;20412;-79
2023/09/17 00:29:08;;;;;;;12.43;11.30;;;19.40;95.70;;;;;;6152121;23;20028;-78
2023/09/17 00:31:34;;;;;;;12.55;11.18;;;19.30;95.80;;;;;;6152780;23;20081;-79
2023/09/17 00:33:59;;;;;;;11.05;10.10;;;19.30;95.80;;;;;;6151822;23;20019;-78
2023/09/17 00:36:26;;;;;;;11.13;10.00;;;19.30;95.80;;;;;;6126155;23;20073;-78
2023/09/17 00:38:51;;;;;;;11.35;10.35;;;19.30;95.80;;;;;;6152036;23;20079;-78
2023/09/17 00:41:17;;;;;;;10.77;9.70;;;19.30;95.90;;;;;;6152259;23;20009;-78
2023/09/17 00:43:43;;;;;;;10.48;9.45;;;19.20;95.90;;;;;;6131020;23;20443;-78
2023/09/17 00:46:08;;;;;;;10.32;9.32;;;19.20;96.00;;;;;;6181723;23;20363;-79
2023/09/17 00:48:34;;;;;;;9.50;8.50;;;19.20;96.20;;;;;;6181281;23;20005;-78
2023/09/17 00:51:00;;;;;;;9.27;8.32;;;19.20;95.90;;;;;;6181526;23;20083;-78
2023/09/17 00:53:26;;;;;;;10.20;9.30;;;19.20;95.70;;;;;;6181613;23;20074;-78
2023/09/17 00:55:52;;;;;;;11.00;9.13;;;19.10;95.40;;;;;;6181648;23;20374;-78
2023/09/17 00:58:18;;;;;;;10.30;8.50;;;19.20;95.50;;;;;;6181855;23;20005;-78
2023/09/17 01:00:44;;;;;;;11.05;9.95;;;19.10;95.40;;;;;;6181789;23;20029;-78
2023/09/17 01:03:12;;;;;;;10.77;9.88;;;19.20;95.40;;;;;;6155237;23;20016;-78
2023/09/17 01:05:41;;;;;;;11.60;10.50;;;19.10;95.40;;;;;;6155760;23;20005;-78
2023/09/17 01:08:07;;;;;;;13.13;11.52;;;19.00;95.40;;;;;;6181163;23;20001;-78
2023/09/17 01:10:34;;;;;;;13.10;11.30;;;19.00;95.50;;;;;;6181970;23;20011;-78
2023/09/17 01:13:02;;;;;;;13.70;12.30;;;18.90;95.60;;;;;;6181502;23;20008;-78
2023/09/17 01:15:28;;;;;;;12.77;11.65;;;18.90;95.80;;;;;;6181162;23;20009;-78
2023/09/17 01:17:54;;;;;;;12.13;10.95;;;18.90;95.90;;;;;;6155555;23;20419;-78
2023/09/17 01:20:26;;;;;;;13.63;12.32;;;18.90;96.00;;;;;;6181689;23;20008;-78
2023/09/17 01:22:56;;;;;;;15.35;13.77;;;18.80;96.10;;;;;;6181274;23;20024;-78
2023/09/17 01:25:42;;;;;;;16.17;14.57;;;18.80;96.20;;;;;;6181688;23;20021;-78
2023/09/17 01:28:12;;;;;;;16.35;14.77;;;18.80;96.30;;;;;;6181570;23;20028;-78
2023/09/17 01:30:42;;;;;;;13.88;12.45;;;18.70;96.50;;;;;;6181775;23;20088;-78
2023/09/17 01:33:11;;;;;;;16.77;13.65;;;18.60;96.60;;;;;;6181612;23;20008;-79
2023/09/17 01:35:57;;;;;;;15.65;13.98;;;18.60;96.70;;;;;;6181634;23;20056;-78
2023/09/17 01:38:31;;;;;;;15.18;13.63;;;18.60;96.70;;;;;;6181591;23;19997;-78
2023/09/17 01:40:58;;;;;;;15.48;14.13;;;18.50;96.80;;;;;;6181997;23;20005;-78
2023/09/17 01:43:24;;;;;;;16.52;14.98;;;18.50;96.80;;;;;;6180666;23;20089;-77
2023/09/17 01:45:50;;;;;;;12.93;11.75;;;18.50;96.80;;;;;;6151818;23;20037;-77
2023/09/17 01:48:17;;;;;;;15.13;13.68;;;18.40;96.80;;;;;;6151710;23;20009;-78
2023/09/17 01:50:43;;;;;;;15.23;14.00;;;18.40;96.80;;;;;;6151737;23;20005;-78
2023/09/17 01:53:11;;;;;;;14.30;13.10;;;18.40;96.80;;;;;;6151331;23;20335;-78
2023/09/17 01:55:37;;;;;;;16.35;14.80;;;18.40;96.80;;;;;;6151483;23;20494;-78
2023/09/17 01:58:03;;;;;;;15.98;14.35;;;18.40;96.80;;;;;;6151441;23;20001;-78
2023/09/17 02:00:28;;;;;;;15.88;14.27;;;18.40;96.80;;;;;;6151880;23;20649;-79
2023/09/17 02:02:54;;;;;;;14.25;13.05;;;18.30;96.90;;;;;;6151875;23;20005;-78
2023/09/17 02:05:25;;;;;;;17.35;15.20;;;18.30;96.90;;;;;;6151019;23;20010;-78
2023/09/17 02:07:51;;;;;;;18.00;16.42;;;18.30;97.10;;;;;;6125699;23;20009;-79
2023/09/17 02:10:16;;;;;;;15.02;13.63;;;18.20;97.20;;;;;;6151602;23;20013;-78
2023/09/17 02:12:42;;;;;;;16.42;14.93;;;18.20;97.20;;;;;;6151502;23;20005;-78
2023/09/17 02:15:09;;;;;;;15.10;13.77;;;18.20;97.20;;;;;;6151006;23;20005;-78
2023/09/17 02:17:35;;;;;;;14.65;13.20;;;18.20;97.20;;;;;;6151791;23;20001;-78
2023/09/17 02:20:00;;;;;;;15.45;14.05;;;18.20;97.10;;;;;;6124572;23;20363;-78
2023/09/17 02:22:26;;;;;;;15.18;13.57;;;18.10;97.20;;;;;;6125636;23;20005;-78
2023/09/17 02:24:51;;;;;;;16.15;14.57;;;18.10;97.20;;;;;;6151265;23;20064;-80
2023/09/17 02:27:17;;;;;;;16.15;14.75;;;18.20;97.40;;;;;;6151467;23;20425;-78
2023/09/17 02:29:43;;;;;;;14.85;13.40;;;18.20;97.40;;;;;;6125300;23;20012;-78
2023/09/17 02:32:13;;;;;;;15.82;14.30;;;18.20;97.30;;;;;;6151523;23;20485;-78
2023/09/17 02:34:38;;;;;;;15.60;14.10;;;18.20;97.30;;;;;;6150530;23;20886;-77
2023/09/17 02:37:04;;;;;;;16.88;15.38;;;18.20;97.40;;;;;;6151494;23;20032;-78
2023/09/17 02:39:29;;;;;;;16.17;14.20;;;18.20;97.40;;;;;;6152063;23;20084;-78
2023/09/17 02:41:55;;;;;;;14.50;13.02;;;18.20;97.40;;;;;;6151599;23;20005;-78
2023/09/17 02:44:21;;;;;;;15.48;13.98;;;18.20;97.40;;;;;;6151230;23;20059;-79
2023/09/17 02:46:47;;;;;;;16.55;15.05;;;18.20;97.40;;;;;;6151458;23;20006;-78
2023/09/17 02:49:12;;;;;;;17.20;15.77;;;18.20;97.60;;;;;;6150933;23;20072;-79
2023/09/17 02:51:38;;;;;;;15.98;14.55;;;18.10;97.80;;;;;;6151487;23;20006;-78
2023/09/17 02:54:04;;;;;;;16.17;14.55;;;18.10;98.00;;;;;;6151011;23;20005;-78
2023/09/17 02:56:29;;;;;;;18.65;16.80;;;18.10;98.20;;;;;;6151486;23;20005;-77
2023/09/17 02:58:55;;;;;;;16.73;14.88;;;18.00;98.40;;;;;;6151337;23;20076;-79
2023/09/17 03:01:23;;;;;;;17.42;15.75;;;17.90;98.50;;;;;;6150997;23;20403;-78
2023/09/17 03:03:49;;;;;;;19.70;17.67;;;17.80;98.70;;;;;;6150803;23;20001;-78
2023/09/17 03:06:15;;;;;;;16.67;14.98;;;17.70;98.90;;;;;;6151080;23;20013;-77
2023/09/17 03:08:42;;;;;;;15.60;14.05;;;17.70;99.10;;;;;;6151197;23;20336;-77
2023/09/17 03:11:17;;;;;;;15.70;14.30;;;17.60;99.30;;;;;;6151001;23;20479;-77
2023/09/17 03:13:46;;;;;;;19.45;16.92;;;17.50;99.50;;;;;;6125185;23;19997;-77
2023/09/17 03:16:15;;;;;;;17.20;15.60;;;17.50;99.70;;;;;;6150862;23;20008;-77
2023/09/17 03:18:43;;;;;;;19.13;16.88;;;17.40;99.80;;;;;;6124570;23;20013;-77
2023/09/17 03:21:09;;;;;;;16.20;14.80;;;17.40;99.90;;;;;;6150735;23;20001;-77
2023/09/17 03:23:36;;;;;;;16.38;14.85;;;17.30;99.90;;;;;;6125517;23;20009;-77
2023/09/17 03:26:03;;;;;;;19.13;17.33;;;17.30;99.90;;;;;;6124746;23;20009;-77
2023/09/17 03:28:32;;;;;;;17.95;15.77;;;17.30;99.90;;;;;;6151715;23;19998;-78
2023/09/17 03:30:58;;;;;;;18.42;16.58;;;17.20;99.90;;;;;;6150778;23;20005;-78
2023/09/17 03:33:24;;;;;;;20.08;18.00;;;17.20;99.90;;;;;;6150704;23;20005;-78
2023/09/17 03:35:51;;;;;;;16.98;15.27;;;17.10;99.90;;;;;;6150783;23;20006;-78
2023/09/17 03:38:17;;;;;;;20.63;18.50;;;17.10;99.90;;;;;;6124912;23;20013;-79
2023/09/17 03:40:43;;;;;;;17.75;16.05;;;17.10;99.90;;;;;;6150795;23;20012;-78
2023/09/17 03:43:08;;;;;;;18.65;16.92;;;17.00;99.90;;;;;;6150825;23;20005;-78
2023/09/17 03:45:34;;;;;;;19.58;17.67;;;17.00;99.90;;;;;;6150899;23;20128;-78
2023/09/17 03:48:00;;;;;;;18.90;17.15;;;17.00;99.90;;;;;;6124349;23;20006;-78
2023/09/17 03:50:27;;;;;;;17.73;16.13;;;17.00;99.90;;;;;;6151024;23;20006;-78
2023/09/17 03:52:56;;;;;;;19.05;16.60;;;17.00;99.90;;;;;;6151103;23;20004;-78
2023/09/17 03:55:23;;;;;;;20.52;18.63;;;16.90;99.90;;;;;;6150637;23;20006;-78
2023/09/17 03:57:49;;;;;;;24.60;18.95;;;17.00;99.90;;;;;;6151089;23;20076;-77
2023/09/17 04:00:17;;;;;;;32.72;22.80;;;17.00;99.90;;;;;;6150681;23;20332;-77
2023/09/17 04:02:43;;;;;;;20.77;18.85;;;16.90;99.90;;;;;;6124177;23;20313;-76
2023/09/17 04:05:12;;;;;;;20.67;18.58;;;16.90;99.90;;;;;;6150607;23;20006;-76
2023/09/17 04:07:39;;;;;;;21.83;19.73;;;16.80;99.90;;;;;;6151479;23;20005;-76
2023/09/17 04:10:06;;;;;;;24.08;20.55;;;16.80;99.90;;;;;;6152446;23;20076;-77
2023/09/17 04:12:36;;;;;;;21.08;18.88;;;16.80;99.90;;;;;;6153346;23;20077;-76
2023/09/17 04:15:13;;;;;;;22.23;20.02;;;16.80;99.90;;;;;;6152444;23;20005;-76
2023/09/17 04:17:39;;;;;;;24.45;21.92;;;16.80;99.90;;;;;;6152672;23;20002;-77
2023/09/17 04:20:14;;;;;;;23.30;20.85;;;16.80;99.90;;;;;;6152535;23;20327;-76
2023/09/17 04:22:43;;;;;;;21.88;19.70;;;16.80;99.90;;;;;;6152804;23;20008;-76
2023/09/17 04:25:10;;;;;;;25.60;23.08;;;16.80;99.90;;;;;;6152808;23;20009;-77
2023/09/17 04:27:37;;;;;;;26.30;23.75;;;16.80;99.90;;;;;;6152839;23;20006;-77
2023/09/17 04:30:05;;;;;;;26.90;24.27;;;16.80;99.90;;;;;;6152610;23;20006;-78
2023/09/17 04:32:37;;;;;;;23.77;21.40;;;16.70;99.90;;;;;;6152310;23;20001;-77
2023/09/17 04:35:07;;;;;;;30.58;27.35;;;16.80;99.90;;;;;;6152483;23;20052;-77
2023/09/17 04:37:34;;;;;;;26.17;23.55;;;16.80;99.90;;;;;;6153268;23;20382;-76
2023/09/17 04:40:00;;;;;;;27.58;24.77;;;16.70;99.90;;;;;;6126295;23;20478;-77
2023/09/17 04:42:26;;;;;;;24.33;21.88;;;16.70;99.90;;;;;;6152516;23;19997;-76
2023/09/17 04:44:52;;;;;;;28.10;25.13;;;16.80;99.90;;;;;;6150791;23;20024;-76
2023/09/17 04:47:17;;;;;;;25.73;23.05;;;16.70;99.90;;;;;;6151653;23;20056;-77
2023/09/17 04:49:43;;;;;;;26.88;24.23;;;16.80;99.90;;;;;;6152211;23;20002;-77
2023/09/17 04:52:09;;;;;;;24.52;22.02;;;16.80;99.90;;;;;;6152547;23;20007;-77
2023/09/17 04:54:36;;;;;;;25.63;23.00;;;16.80;99.90;;;;;;6152970;23;20081;-77
2023/09/17 04:57:03;;;;;;;25.52;22.85;;;16.80;99.90;;;;;;6125976;23;20037;-76
2023/09/17 04:59:29;;;;;;;25.48;23.08;;;16.90;99.90;;;;;;6152580;23;19998;-77
2023/09/17 05:01:55;;;;;;;29.70;26.17;;;16.90;99.90;;;;;;6152451;23;20008;-77
2023/09/17 05:04:24;;;;;;;28.33;25.40;;;16.90;99.90;;;;;;6152040;23;20006;-77
2023/09/17 05:06:49;;;;;;;26.30;23.67;;;17.00;99.90;;;;;;6152103;23;20008;-77
2023/09/17 05:09:15;;;;;;;24.90;22.50;;;17.00;99.90;;;;;;6152371;23;20371;-77
2023/09/17 05:11:40;;;;;;;26.00;23.38;;;17.00;99.90;;;;;;6152684;23;20052;-77
2023/09/17 05:14:06;;;;;;;28.70;25.70;;;17.00;99.90;;;;;;6152029;23;20009;-77
2023/09/17 05:16:31;;;;;;;27.45;24.73;;;17.00;99.90;;;;;;6152482;23;20442;-78
2023/09/17 05:18:57;;;;;;;27.10;24.25;;;17.00;99.90;;;;;;6152278;23;20008;-78
2023/09/17 05:21:23;;;;;;;29.48;26.42;;;17.00;99.90;;;;;;6151827;23;19998;-77
2023/09/17 05:23:48;;;;;;;28.77;26.05;;;17.00;99.90;;;;;;6152395;23;20328;-77
2023/09/17 05:26:14;;;;;;;27.55;24.25;;;17.00;99.90;;;;;;6151705;23;20080;-77
2023/09/17 05:28:39;;;;;;;24.95;22.58;;;17.00;99.90;;;;;;6151553;23;20002;-77
2023/09/17 05:31:05;;;;;;;25.35;22.83;;;17.10;99.90;;;;;;6151879;23;20001;-77
2023/09/17 05:33:30;;;;;;;28.55;25.05;;;17.00;99.90;;;;;;6152605;23;20005;-78
2023/09/17 05:35:56;;;;;;;28.98;24.88;;;17.10;99.90;;;;;;6125647;23;20514;-78
2023/09/17 05:38:23;;;;;;;24.92;22.27;;;17.00;99.90;;;;;;6152095;23;20001;-78
2023/09/17 05:40:49;;;;;;;27.67;24.55;;;17.00;99.90;;;;;;6152093;23;20005;-78
2023/09/17 05:43:15;;;;;;;27.38;24.48;;;17.00;99.90;;;;;;6151251;23;20006;-78
2023/09/17 05:45:41;;;;;;;26.52;23.67;;;17.00;99.90;;;;;;6151700;23;20017;-79
2023/09/17 05:48:07;;;;;;;29.00;25.98;;;17.00;99.90;;;;;;6151361;23;20044;-79
2023/09/17 05:50:32;;;;;;;27.95;25.02;;;17.10;99.90;;;;;;6152020;23;20336;-80
2023/09/17 05:52:58;;;;;;;27.17;24.40;;;17.00;99.90;;;;;;6151542;23;20068;-78
2023/09/17 05:55:23;;;;;;;30.77;25.88;;;17.10;99.90;;;;;;6151759;23;20009;-78
2023/09/17 05:57:49;;;;;;;27.50;24.60;;;17.10;99.90;;;;;;6151320;23;19997;-78
2023/09/17 06:00:16;;;;;;;25.05;22.58;;;17.10;99.90;;;;;;6151471;23;20002;-78
2023/09/17 06:02:42;;;;;;;26.30;23.40;;;17.10;99.90;;;;;;6125433;23;20005;-78
2023/09/17 06:05:08;;;;;;;25.50;22.48;;;17.10;99.90;;;;;;6151443;23;20382;-78
2023/09/17 06:07:34;;;;;;;25.05;22.63;;;17.10;99.90;;;;;;6152139;23;20011;-79
2023/09/17 06:09:59;;;;;;;25.67;23.13;;;17.10;99.90;;;;;;6151395;23;20203;-79
2023/09/17 06:12:25;;;;;;;25.17;22.50;;;17.10;99.90;;;;;;6151512;23;20368;-79
2023/09/17 06:14:51;;;;;;;26.30;23.65;;;17.10;99.90;;;;;;6151395;23;20005;-79
2023/09/17 06:17:16;;;;;;;22.85;20.50;;;17.10;99.90;;;;;;6151447;23;20005;-79
2023/09/17 06:19:42;;;;;;;23.45;21.20;;;17.10;99.90;;;;;;6151681;23;20029;-79
2023/09/17 06:22:08;;;;;;;23.48;21.30;;;17.00;99.90;;;;;;6151419;23;19998;-79
2023/09/17 06:24:33;;;;;;;21.73;19.50;;;17.10;99.90;;;;;;6151930;23;20012;-80
2023/09/17 06:26:59;;;;;;;23.23;20.85;;;17.20;99.90;;;;;;6150869;23;20028;-79
2023/09/17 06:29:25;;;;;;;25.33;22.88;;;17.20;99.90;;;;;;6151649;23;20013;-80
2023/09/17 06:31:50;;;;;;;23.17;21.00;;;17.20;99.90;;;;;;6151433;23;20009;-79
2023/09/17 06:34:16;;;;;;;21.73;19.63;;;17.20;99.90;;;;;;6151525;23;20062;-80
2023/09/17 06:36:42;;;;;;;21.80;19.73;;;17.20;99.90;;;;;;6151718;23;20006;-80
2023/09/17 06:39:07;;;;;;;21.33;19.20;;;17.20;99.90;;;;;;6151389;23;20012;-80
2023/09/17 06:41:33;;;;;;;20.90;18.80;;;17.20;99.90;;;;;;6151407;23;20025;-81
2023/09/17 06:43:59;;;;;;;20.27;18.15;;;17.20;99.90;;;;;;6150687;23;20109;-79
2023/09/17 06:46:25;;;;;;;21.88;19.58;;;17.20;99.90;;;;;;6151549;23;20068;-79
2023/09/17 06:48:51;;;;;;;17.92;15.48;;;17.20;99.90;;;;;;6151393;23;20012;-79
2023/09/17 06:51:16;;;;;;;20.38;18.25;;;17.30;99.90;;;;;;6151436;23;20072;-79
2023/09/17 06:53:42;;;;;;;16.70;15.10;;;17.20;99.90;;;;;;6151515;23;20080;-78
2023/09/17 06:56:08;;;;;;;22.15;18.02;;;17.20;99.90;;;;;;6150688;23;19998;-79
2023/09/17 06:58:35;;;;;;;18.88;16.30;;;17.20;99.90;;;;;;6149459;23;20005;-78
2023/09/17 07:01:00;;;;;;;18.70;16.52;;;17.30;99.90;;;;;;6148412;23;20033;-79
2023/09/17 07:03:26;;;;;;;18.77;16.88;;;17.20;99.90;;;;;;6149220;23;20123;-79
2023/09/17 07:05:51;;;;;;;20.30;18.40;;;17.30;99.90;;;;;;6150034;23;20092;-79
2023/09/17 07:08:17;;;;;;;18.23;16.38;;;17.20;99.90;;;;;;6150429;23;20734;-79
2023/09/17 07:10:45;;;;;;;19.75;17.58;;;17.20;99.90;;;;;;6150454;23;20008;-79
2023/09/17 07:13:11;;;;;;;16.98;15.23;;;17.30;99.90;;;;;;6150798;23;20033;-75
2023/09/17 07:15:37;;;;;;;16.30;14.68;;;17.30;99.90;;;;;;6151085;23;20009;-77
2023/09/17 07:18:03;;;;;;;19.23;17.00;;;17.30;99.90;;;;;;6150410;23;20438;-77
2023/09/17 07:20:28;;;;;;;18.88;16.75;;;17.30;99.90;;;;;;6151603;23;20428;-77
2023/09/17 07:22:54;;;;;;;17.27;15.38;;;17.30;99.90;;;;;;6151043;23;20415;-77
2023/09/17 07:25:20;;;;;;;18.92;17.13;;;17.30;99.90;;;;;;6150647;23;20009;-77
2023/09/17 07:27:45;;;;;;;18.13;16.23;;;17.40;99.90;;;;;;6151178;23;20474;-76
2023/09/17 07:30:11;;;;;;;13.25;11.70;;;17.40;99.90;;;;;;6124445;23;20052;-76
2023/09/17 07:32:37;;;;;;;15.82;14.30;;;17.40;99.90;;;;;;6125203;23;20005;-76
2023/09/17 07:35:03;;;;;;;15.90;14.38;;;17.40;99.90;;;;;;6150830;23;20416;-76
2023/09/17 07:37:29;;;;;;;17.65;16.00;;;17.50;99.90;;;;;;6151709;23;20044;-76
2023/09/17 07:40:01;;;;;;;13.60;12.25;;;17.50;99.90;;;;;;6150660;23;20008;-76
2023/09/17 07:42:27;;;;;;;19.38;16.17;;;17.50;99.90;;;;;;6151393;23;19997;-76
2023/09/17 07:44:52;;;;;;;16.83;14.60;;;17.60;99.90;;;;;;6141174;23;20068;-76
2023/09/17 07:47:18;;;;;;;15.48;13.80;;;17.50;99.90;;;;;;6152864;23;20068;-78
2023/09/17 07:49:44;;;;;;;16.52;14.82;;;17.50;99.90;;;;;;6153265;23;20013;-76
2023/09/17 07:52:11;;;;;;;14.55;13.18;;;17.60;99.90;;;;;;6150816;23;20052;-77
2023/09/17 07:54:39;;;;;;;14.32;13.00;;;17.50;99.90;;;;;;6153029;23;20041;-77
2023/09/17 07:57:10;;;;;;;16.00;12.75;;;17.50;99.90;;;;;;6152386;23;20008;-77
2023/09/17 07:59:36;;;;;;;13.55;12.35;;;17.50;99.90;;;;;;6153574;23;20079;-76
2023/09/17 08:02:03;;;;;;;15.73;14.20;;;17.50;99.90;;;;;;6152545;23;19997;-77
2023/09/17 08:04:28;;;;;;;15.60;14.00;;;17.50;99.90;;;;;;6153032;23;20002;-77
2023/09/17 08:06:54;;;;;;;16.88;15.35;;;17.50;99.90;;;;;;6152441;23;20097;-76
2023/09/17 08:09:20;;;;;;;14.40;13.02;;;17.50;99.90;;;;;;6152487;23;20060;-77
2023/09/17 08:11:45;;;;;;;16.42;15.02;;;17.50;99.90;;;;;;6153044;23;20029;-76
2023/09/17 08:14:11;;;;;;;15.38;13.88;;;17.60;99.90;;;;;;6152420;23;20008;-77
2023/09/17 08:16:37;;;;;;;17.52;15.70;;;17.60;99.90;;;;;;6153088;23;19998;-77
2023/09/17 08:19:04;;;;;;;16.40;14.80;;;17.70;99.90;;;;;;6150861;23;20006;-77
2023/09/17 08:21:30;;;;;;;16.23;14.55;;;17.70;99.90;;;;;;6153113;23;19993;-77
2023/09/17 08:23:58;;;;;;;17.23;15.45;;;17.70;99.90;;;;;;6150957;23;19997;-77
2023/09/17 08:26:27;;;;;;;15.68;14.27;;;17.80;99.90;;;;;;6152796;23;20437;-77
2023/09/17 08:28:55;;;;;;;16.35;14.88;;;17.80;99.90;;;;;;6152736;23;20002;-78
2023/09/17 08:31:22;;;;;;;18.40;16.48;;;17.90;99.90;;;;;;6150840;23;20105;-76
2023/09/17 08:33:48;;;;;;;17.77;15.98;;;17.90;99.90;;;;;;6151167;23;20089;-77
2023/09/17 08:36:15;;;;;;;19.55;17.45;;;17.90;99.90;;;;;;6150987;23;20040;-75
2023/09/17 08:38:41;;;;;;;18.23;16.40;;;17.90;99.90;;;;;;6152683;23;20032;-74
2023/09/17 08:41:07;;;;;;;17.50;15.65;;;17.90;99.90;;;;;;6152070;23;20025;-75
2023/09/17 08:43:33;;;;;;;20.17;18.27;;;17.90;99.90;;;;;;6151134;23;20037;-76
2023/09/17 08:46:03;;;;;;;19.83;17.85;;;18.00;99.90;;;;;;6152075;23;20008;-76
2023/09/17 08:48:29;;;;;;;21.83;19.55;;;18.00;99.90;;;;;;6126923;23;20025;-76
2023/09/17 08:50:55;;;;;;;21.85;19.63;;;18.00;99.90;;;;;;6152338;23;20420;-76
2023/09/17 08:53:28;;;;;;;20.60;18.80;;;18.00;99.90;;;;;;6125769;23;20414;-76
2023/09/17 08:55:56;;;;;;;23.08;20.77;;;18.00;99.90;;;;;;6125927;23;20016;-76
2023/09/17 08:58:26;;;;;;;24.08;21.67;;;18.00;99.90;;;;;;6126035;23;20014;-76
2023/09/17 09:00:55;;;;;;;24.05;21.55;;;18.00;99.90;;;;;;6152321;23;20443;-76
2023/09/17 09:03:25;;;;;;;24.60;22.13;;;18.10;99.90;;;;;;6152040;23;20005;-76
2023/09/17 09:05:55;;;;;;;30.10;27.17;;;18.10;99.90;;;;;;6125865;23;20037;-76
2023/09/17 09:08:22;;;;;;;24.88;22.42;;;18.10;99.90;;;;;;6152638;23;20515;-76
2023/09/17 09:10:50;;;;;;;26.13;23.60;;;18.00;99.90;;;;;;6126578;23;20013;-76
2023/09/17 09:13:17;;;;;;;27.17;24.17;;;18.10;99.90;;;;;;6152031;23;20036;-76
2023/09/17 09:15:42;;;;;;;28.27;24.10;;;18.10;99.90;;;;;;6126365;23;20498;-76
2023/09/17 09:18:08;;;;;;;26.08;23.48;;;18.10;99.90;;;;;;6151705;23;20033;-76
2023/09/17 09:20:36;;;;;;;27.05;24.35;;;18.20;99.90;;;;;;6152050;23;20406;-76
2023/09/17 09:23:01;;;;;;;25.80;23.20;;;18.20;99.90;;;;;;6151746;23;20072;-76
2023/09/17 09:25:28;;;;;;;26.65;23.70;;;18.20;99.90;;;;;;6152633;23;20580;-78
2023/09/17 09:27:58;;;;;;;28.48;25.42;;;18.30;99.90;;;;;;6152112;23;20006;-77
2023/09/17 09:30:26;;;;;;;24.75;22.35;;;18.30;99.90;;;;;;6152353;23;20005;-77
2023/09/17 09:32:51;;;;;;;26.75;23.95;;;18.30;99.90;;;;;;6150812;23;20006;-78
2023/09/17 09:35:18;;;;;;;24.70;22.15;;;18.40;99.90;;;;;;6150937;23;20021;-78
2023/09/17 09:37:45;;;;;;;31.05;27.90;;;18.40;99.90;;;;;;6125714;23;20033;-77
2023/09/17 09:40:13;;;;;;;27.83;24.83;;;18.50;99.90;;;;;;6151054;23;20036;-77
2023/09/17 09:42:38;;;;;;;24.83;22.60;;;18.60;99.90;;;;;;6151815;23;20001;-78
2023/09/17 09:45:04;;;;;;;28.50;25.80;;;18.60;99.90;;;;;;6146168;23;20419;-76
2023/09/17 09:47:31;;;;;;;28.98;26.00;;;18.70;99.90;;;;;;6181488;23;20040;-76
2023/09/17 09:49:57;;;;;;;30.48;27.58;;;18.80;99.90;;;;;;6180831;23;20005;-77
2023/09/17 09:52:24;;;;;;;29.08;26.20;;;18.90;99.90;;;;;;6180957;23;20463;-76
2023/09/17 09:54:49;;;;;;;32.42;29.17;;;19.00;99.90;;;;;;6181490;23;20005;-77
2023/09/17 09:57:18;;;;;;;30.58;27.33;;;19.00;99.90;;;;;;6154800;23;20009;-77
2023/09/17 09:59:49;;;;;;;26.75;24.05;;;19.10;99.90;;;;;;6155334;23;20009;-77
2023/09/17 10:02:16;;;;;;;25.27;22.80;;;19.20;99.90;;;;;;6181243;23;20036;-76
2023/09/17 10:04:43;;;;;;;31.70;28.63;;;19.20;99.90;;;;;;6178922;23;20001;-78
2023/09/17 10:07:14;;;;;;;31.00;28.00;;;19.40;99.90;;;;;;6181252;23;20084;-78
2023/09/17 10:09:41;;;;;;;29.38;26.58;;;19.40;99.90;;;;;;6181866;23;20551;-77
2023/09/17 10:12:07;;;;;;;31.25;28.08;;;19.50;99.90;;;;;;6180681;23;20383;-77
2023/09/17 10:14:40;;;;;;;35.85;30.73;;;19.60;99.90;;;;;;6154299;23;20449;-77
2023/09/17 10:17:07;;;;;;;30.58;27.42;;;19.60;99.90;;;;;;6181154;23;20598;-77
2023/09/17 10:19:34;;;;;;;32.03;28.83;;;19.70;99.90;;;;;;6154592;23;20008;-77
2023/09/17 10:22:03;;;;;;;32.70;29.38;;;19.70;99.90;;;;;;6154749;23;20059;-77
2023/09/17 10:24:30;;;;;;;33.22;29.75;;;19.70;99.90;;;;;;6155278;23;20009;-77
2023/09/17 10:26:58;;;;;;;31.95;28.33;;;19.80;99.90;;;;;;6181597;23;20005;-77
2023/09/17 10:29:25;;;;;;;31.70;26.65;;;19.90;99.90;;;;;;6181338;23;20001;-78
2023/09/17 10:31:51;;;;;;;33.72;29.83;;;20.00;99.90;;;;;;6181685;23;20010;-77
2023/09/17 10:34:18;;;;;;;38.75;33.92;;;20.00;99.90;;;;;;6180461;23;20423;-77
2023/09/17 10:36:45;;;;;;;40.53;32.58;;;20.10;99.90;;;;;;6181980;23;20047;-77
2023/09/17 10:39:15;;;;;;;35.38;31.80;;;20.20;99.90;;;;;;6180786;23;20005;-77
2023/09/17 10:41:41;;;;;;;31.73;28.42;;;20.20;99.90;;;;;;6154641;23;20009;-76
2023/09/17 10:44:08;;;;;;;34.08;29.98;;;20.20;99.90;;;;;;6170125;23;20092;-76
2023/09/17 10:46:38;;;;;;;38.80;32.75;;;20.20;99.90;;;;;;6124837;23;20005;-76
2023/09/17 10:49:04;;;;;;;45.72;36.70;;;20.20;99.90;;;;;;6149928;23;20326;-76
2023/09/17 10:51:30;;;;;;;38.20;34.25;;;20.20;99.90;;;;;;6125421;23;20002;-76
2023/09/17 10:53:56;;;;;;;40.75;33.00;;;20.10;99.90;;;;;;6151395;23;20416;-76
2023/09/17 10:56:23;;;;;;;37.55;33.65;;;20.20;99.90;;;;;;6125000;23;20005;-76
2023/09/17 10:58:51;;;;;;;33.40;29.88;;;20.30;99.90;;;;;;6151280;23;20029;-76
2023/09/17 11:01:37;;;;;;;34.90;31.25;;;20.30;99.90;;;;;;6124682;23;20030;-76
2023/09/17 11:04:11;;;;;;;37.85;33.78;;;20.40;99.90;;;;;;6149241;23;20009;-75
2023/09/17 11:06:38;;;;;;;40.70;33.85;;;20.50;99.90;;;;;;6151056;23;20001;-76
2023/09/17 11:09:06;;;;;;;40.13;34.95;;;20.50;99.90;;;;;;6150999;23;20364;-76
2023/09/17 11:11:34;;;;;;;41.10;36.97;;;20.60;99.90;;;;;;6125160;23;20040;-77
2023/09/17 11:14:02;;;;;;;36.72;33.05;;;20.70;99.90;;;;;;6150678;23;20002;-76
2023/09/17 11:16:30;;;;;;;35.88;32.17;;;20.80;99.90;;;;;;6124500;23;20019;-76
2023/09/17 11:19:06;;;;;;;37.17;33.28;;;21.00;99.90;;;;;;6150521;23;20009;-76
2023/09/17 11:21:36;;;;;;;37.33;33.50;;;21.20;99.90;;;;;;6125056;23;20005;-77
2023/09/17 11:24:06;;;;;;;35.45;31.92;;;21.30;99.90;;;;;;6124620;23;20006;-78
2023/09/17 11:26:34;;;;;;;33.42;29.75;;;21.40;99.90;;;;;;6151473;23;20028;-75
2023/09/17 11:29:05;;;;;;;40.13;35.95;;;21.40;99.90;;;;;;6150964;23;20026;-76
2023/09/17 11:31:36;;;;;;;40.38;36.22;;;21.40;99.90;;;;;;6149189;23;20076;-76
2023/09/17 11:34:09;;;;;;;38.78;34.60;;;21.40;99.90;;;;;;6150177;23;20033;-76
2023/09/17 11:36:35;;;;;;;35.17;31.10;;;21.40;99.90;;;;;;6151196;23;20084;-75
2023/09/17 11:39:06;;;;;;;46.42;41.45;;;21.40;99.90;;;;;;6150804;23;20506;-76
2023/09/17 11:41:35;;;;;;;35.03;30.98;;;21.40;99.90;;;;;;6151257;23;19998;-76
2023/09/17 11:44:03;;;;;;;38.33;34.42;;;21.40;99.90;;;;;;6128313;23;20017;-77
2023/09/17 11:46:30;;;;;;;40.00;35.70;;;21.50;99.90;;;;;;6150913;23;20873;-76
2023/09/17 11:48:55;;;;;;;41.20;36.03;;;21.50;99.90;;;;;;6149679;23;20336;-76
2023/09/17 11:51:26;;;;;;;43.25;38.78;;;21.50;99.90;;;;;;6150881;23;20017;-76
2023/09/17 11:53:56;;;;;;;38.30;34.10;;;21.50;99.90;;;;;;6151376;23;20052;-77
2023/09/17 11:56:29;;;;;;;36.67;32.60;;;21.50;99.90;;;;;;6150868;23;20001;-76
2023/09/17 11:59:10;;;;;;;34.92;31.17;;;21.50;99.90;;;;;;6150998;23;20025;-76
2023/09/17 12:01:41;;;;;;;39.17;35.10;;;21.50;99.90;;;;;;6149008;23;20420;-76
2023/09/17 12:04:08;;;;;;;38.83;34.78;;;21.50;99.90;;;;;;6148845;23;20451;-76
2023/09/17 12:06:56;;;;;;;41.45;37.00;;;21.50;99.90;;;;;;6149681;23;20008;-76
2023/09/17 12:09:48;;;;;;;43.80;39.38;;;21.50;99.90;;;;;;6148588;23;20085;-76
2023/09/17 12:12:17;;;;;;;35.17;31.42;;;21.50;99.90;;;;;;6150540;23;20001;-76
2023/09/17 12:14:43;;;;;;;38.60;34.70;;;21.50;99.90;;;;;;6150644;23;20001;-76
2023/09/17 12:17:08;;;;;;;44.88;38.28;;;21.40;99.90;;;;;;6150360;23;20065;-76
2023/09/17 12:19:34;;;;;;;40.65;35.10;;;21.40;99.90;;;;;;6150844;23;20009;-76
2023/09/17 12:22:00;;;;;;;39.47;35.22;;;21.50;99.90;;;;;;6149265;23;20006;-76
2023/09/17 12:24:44;;;;;;;37.25;33.53;;;21.50;99.90;;;;;;6151087;23;20002;-74
2023/09/17 12:29:58;;;;;;;36.08;32.20;;;21.70;99.90;;;;;;6160827;23;20005;-76
2023/09/17 12:32:26;;;;;;;38.80;34.38;;;21.90;99.90;;;;;;6152582;23;20013;-76